Flight Track Log - Related Links

Times and Time Zones

All times are in EDT time to prevent confusion due to time zone crossing. See the CES5700 flight status page for this flight to view local times or setup timezone preferences in your user account.

Time Position Orientation Groundspeed Altitude Reporting Facility
EDT Latitude Longitude Course Direction KTS MPH feet Rate Location/Type
Mon 04:26:00 AM 35.8515 113.2044 31° Northeast  Level Estimated
Mon 04:27:00 AM 35.9306 113.2635 31° Northeast  Level Estimated
Mon 04:28:00 AM 36.0097 113.3228 31° Northeast  Level Estimated
Mon 04:29:00 AM 36.0887 113.3822 31° Northeast  Level Estimated
Mon 04:30:00 AM 36.1677 113.4417 31° Northeast  Level Estimated
Mon 04:31:00 AM 36.2467 113.5013 31° Northeast  Level Estimated
Mon 04:32:00 AM 36.3257 113.5611 31° Northeast  Level Estimated
Mon 04:33:00 AM 36.4046 113.6209 31° Northeast  Level Estimated
Mon 04:34:00 AM 36.4835 113.6809 31° Northeast  Level Estimated
Mon 04:35:00 AM 36.5624 113.7411 31° Northeast  Level Estimated
Mon 04:36:00 AM 36.6412 113.8013 32° Northeast  Level Estimated
Mon 04:37:00 AM 36.7200 113.8616 32° Northeast  Level Estimated
Mon 04:38:00 AM 36.7988 113.9221 32° Northeast  Level Estimated
Mon 04:39:00 AM 36.8775 113.9827 32° Northeast  Level Estimated
Mon 04:40:00 AM 36.9562 114.0435 32° Northeast  Level Estimated
Mon 04:41:00 AM 37.0349 114.1043 32° Northeast  Level Estimated
Mon 04:42:00 AM 37.1135 114.1653 32° Northeast  Level Estimated
Mon 04:43:00 AM 37.1922 114.2265 32° Northeast  Level Estimated
Mon 04:44:00 AM 37.2708 114.2877 32° Northeast  Level Estimated
Mon 04:45:00 AM 37.3493 114.3491 32° Northeast  Level Estimated
Mon 04:46:00 AM 37.4278 114.4106 32° Northeast  Level Estimated
Mon 04:47:00 AM 37.5063 114.4722 32° Northeast  Level Estimated
Mon 04:48:00 AM 37.5848 114.5340 32° Northeast  Level Estimated
Mon 04:49:00 AM 37.6632 114.5958 32° Northeast  Level Estimated
Mon 04:50:00 AM 37.7416 114.6579 32° Northeast  Level Estimated
Mon 04:51:00 AM 37.8200 114.7200 32° Northeast  Level Estimated
Mon 04:52:00 AM 37.8983 114.7823 32° Northeast  Level Estimated
Mon 04:53:00 AM 37.9766 114.8447 32° Northeast  Level Estimated
Mon 04:54:00 AM 38.0549 114.9073 32° Northeast  Level Estimated
Mon 04:55:00 AM 38.1331 114.9699 32° Northeast  Level Estimated
Mon 04:56:00 AM 38.2113 115.0328 32° Northeast  Level Estimated
Mon 04:57:00 AM 38.2895 115.0957 32° Northeast  Level Estimated
Mon 04:58:00 AM 38.3676 115.1588 32° Northeast  Level Estimated
Mon 04:59:00 AM 38.4457 115.2220 32° Northeast  Level Estimated
Mon 05:00:00 AM 38.5238 115.2854 32° Northeast  Level Estimated
Mon 05:01:00 AM 38.6018 115.3489 32° Northeast  Level Estimated
Mon 05:02:00 AM 38.6798 115.4125 32° Northeast  Level Estimated
Mon 05:03:00 AM 38.7577 115.4763 33° Northeast  Level Estimated
Mon 05:04:00 AM 38.8357 115.5402 33° Northeast  Level Estimated
Mon 05:05:00 AM 38.9135 115.6043 33° Northeast  Level Estimated
Mon 05:06:00 AM 38.9914 115.6685 33° Northeast  Level Estimated
Mon 05:07:00 AM 39.0692 115.7328 33° Northeast  Level Estimated
Mon 05:08:00 AM 39.1470 115.7973 33° Northeast  Level Estimated
Mon 05:09:00 AM 39.2248 115.8619 33° Northeast  Level Estimated
Mon 05:10:00 AM 39.3025 115.9267 33° Northeast  Level Estimated
Mon 05:11:00 AM 39.3801 115.9916 33° Northeast  Level Estimated
Mon 05:12:00 AM 39.4578 116.0567 33° Northeast  Level Estimated
Mon 05:12:02 AM 39.7290 116.0990 33° Northeast 320 368 18,700  Level FlightAware ADS-B
Mon 05:12:47 AM 39.7980 116.0880 353° North 325 374 18,700 -442 Level FlightAware ADS-B
Mon 05:13:37 AM 39.8750 116.0770 354° North 324 373 18,000 -1,086 Descending FlightAware ADS-B
Mon 05:14:32 AM 39.9560 116.0770 360° North 305 351 16,800 -1,029 Descending FlightAware ADS-B
Mon 05:15:22 AM 40.0240 116.0760 359° North 299 344 16,200 -1,412 Descending FlightAware ADS-B
Mon 05:15:57 AM 40.0700 116.0770 North 284 327 14,800 -1,360 Descending FlightAware ADS-B
Mon 05:16:37 AM 40.1170 116.0810 North 278 320 14,500 -225 Descending FlightAware ADS-B
Mon 05:17:17 AM 40.1610 116.0870 North 278 320 14,500  Level FlightAware ADS-B
Mon 05:17:57 AM 40.2040 116.0930 North 278 320 14,500 -1,553 Level FlightAware ADS-B
Mon 05:20:00 AM 40.1449 116.3288 108° East  Level Estimated
Mon 05:20:07 AM 40.3150 116.0160 108° East 315 362 10,100  Level FlightAware ADS-B
Mon 05:20:47 AM 40.3560 116.0650 42° Northeast 316 364 9,800 -360 Descending FlightAware ADS-B
Mon 05:20:57 AM 40.3650 116.0760 43° Northeast 316 364 9,800 -2,000 Level FlightAware ADS-B
Mon 05:21:17 AM 40.3620 116.1370 94° East 321 369 8,800 -1,867 Descending FlightAware ADS-B
Mon 05:21:42 AM 40.3600 116.1780 94° East 322 371 8,400 -1,091 Descending FlightAware ADS-B
Mon 05:22:12 AM 40.3570 116.2440 93° East 308 354 7,800 -900 Descending FlightAware ADS-B
Mon 05:22:22 AM 40.3560 116.2560 96° East 306 352 7,800 -450 Level FlightAware ADS-B
Mon 05:22:52 AM 40.3540 116.3070 93° East 277 319 7,500 -720 Descending FlightAware ADS-B
Mon 05:23:12 AM 40.3520 116.3430 94° East 255 293 7,200 -667 Descending FlightAware ADS-B
Mon 05:23:37 AM 40.3500 116.3780 94° East 230 265 7,000 -514 Descending FlightAware ADS-B
Mon 05:24:22 AM 40.3470 116.4330 94° East 218 251 6,600 -1,200 Descending FlightAware ADS-B
Mon 05:25:07 AM 40.3490 116.4050 275° West 210 242 5,200 -1,662 Descending FlightAware ADS-B
Mon 05:25:27 AM 40.3420 116.5150 95° East 197 227 4,800 -1,000 Descending FlightAware ADS-B
Mon 05:25:37 AM 40.3330 116.5240 143° Southeast 187 215 4,700 -450 Descending FlightAware ADS-B
Mon 05:26:07 AM 40.3110 116.5350 159° South 168 193 4,500 -300 Descending FlightAware ADS-B
Mon 05:26:37 AM 40.2930 116.5410 166° South 168 193 4,400 -776 Descending FlightAware ADS-B
Mon 05:27:32 AM 40.2530 116.5460 175° South 148 170 3,400 -1,040 Descending FlightAware ADS-B
Mon 05:27:52 AM 40.2380 116.5480 174° South 141 162 3,100 -360 Descending FlightAware ADS-B
Mon 05:28:22 AM 40.2210 116.5510 172° South 141 162 3,100 -655 Level FlightAware ADS-B
Mon 05:28:47 AM 40.2350 116.5490 354° North 136 157 2,500 -655 Descending FlightAware ADS-B
Mon 05:29:17 AM 40.1910 116.5560 173° South 136 157 2,500 -667 Level FlightAware ADS-B
Mon 05:29:32 AM 40.1790 116.5580 173° South 119 137 2,000 -1,029 Descending FlightAware ADS-B
Mon 05:29:52 AM 40.1730 116.5580 180° South 120 138 1,900 -545 Descending FlightAware ADS-B
Mon 05:30:27 AM 40.1520 116.5620 172° South 121 139 1,500 -400 Descending FlightAware ADS-B
Mon 05:30:52 AM 40.1390 116.5640 173° South 121 139 1,500  Level FlightAware ADS-B
Mon 05:33:00 AM 40.0801 116.5846 165° South  Level Estimated
Mon 05:34:00 AM 40.0801 116.5846 288° West  Level Estimated
Mon 05:35:00 AM 40.0801 116.5846 288° West  Level Estimated
Mon 05:36:00 AM 40.0801 116.5846 288° West  Level Estimated

Login

Don't have an account? Register now (free) for customized features, flight alerts, and more!